createdAt,value
2022-09-30T00:01:33.330Z,100387.16
2022-09-30T00:04:01.799Z,100383.69
2022-09-30T00:06:32.000Z,100391.03
2022-09-30T00:09:00.243Z,100378.50
2022-09-30T00:11:30.094Z,100386.81
2022-09-30T00:13:58.884Z,100380.78
2022-09-30T00:16:29.635Z,100387.25
2022-09-30T00:19:00.456Z,100400.16
2022-09-30T00:21:31.867Z,100403.03
2022-09-30T00:23:59.649Z,100402.44
2022-09-30T00:26:27.928Z,100408.91
2022-09-30T00:28:57.825Z,100407.19
2022-09-30T00:31:27.658Z,100403.72
2022-09-30T00:34:10.660Z,100411.19
2022-09-30T00:36:44.139Z,100409.47
2022-09-30T00:39:15.140Z,100406.72
2022-09-30T00:41:43.999Z,100404.13
2022-09-30T00:44:52.836Z,100403.41
2022-09-30T00:47:49.480Z,100401.09
2022-09-30T00:50:31.460Z,100407.41
2022-09-30T00:53:06.544Z,100407.66
2022-09-30T00:55:46.074Z,100411.25
2022-09-30T00:58:19.138Z,100413.38
2022-09-30T01:00:47.250Z,100405.50
2022-09-30T01:03:15.129Z,100405.63
2022-09-30T01:05:45.426Z,100408.34
2022-09-30T01:08:14.849Z,100407.59
2022-09-30T01:10:42.584Z,100406.00
2022-09-30T01:13:10.554Z,100417.94
2022-09-30T01:15:53.039Z,100410.63
2022-09-30T01:18:30.152Z,100415.47
2022-09-30T01:21:24.477Z,100416.47
2022-09-30T01:24:14.448Z,100415.59
2022-09-30T01:27:03.108Z,100407.69
2022-09-30T01:29:57.775Z,100421.47
2022-09-30T01:32:46.832Z,100427.78
2022-09-30T01:35:26.344Z,100427.91
2022-09-30T01:38:04.738Z,100430.66
2022-09-30T01:40:40.669Z,100434.38
2022-09-30T01:43:13.968Z,100428.91
2022-09-30T01:45:47.562Z,100438.97
2022-09-30T01:48:24.112Z,100439.81
2022-09-30T01:50:58.685Z,100435.38
2022-09-30T01:53:36.467Z,100438.09
2022-09-30T01:56:12.840Z,100440.94
2022-09-30T01:58:47.551Z,100441.06
2022-09-30T02:01:22.659Z,100442.09
2022-09-30T02:03:56.918Z,100442.22
2022-09-30T02:06:27.947Z,100445.09
2022-09-30T02:09:00.616Z,100439.75
2022-09-30T02:11:31.055Z,100437.28
2022-09-30T02:14:02.828Z,100430.97
2022-09-30T02:16:40.072Z,100430.97
2022-09-30T02:19:20.447Z,100425.66
2022-09-30T02:21:55.179Z,100424.03
2022-09-30T02:24:25.629Z,100427.91
2022-09-30T02:26:57.296Z,100428.88
2022-09-30T02:29:32.329Z,100429.03
2022-09-30T02:32:05.309Z,100429.28
2022-09-30T02:34:36.020Z,100437.09
2022-09-30T02:37:08.883Z,100441.84
2022-09-30T02:39:43.208Z,100440.00
2022-09-30T02:42:16.390Z,100448.28
2022-09-30T02:44:44.201Z,100444.00
2022-09-30T02:47:17.230Z,100444.00
2022-09-30T02:49:49.184Z,100447.03
2022-09-30T02:52:26.818Z,100445.34
2022-09-30T02:55:08.690Z,100445.09
2022-09-30T02:57:44.046Z,100441.75
2022-09-30T03:00:13.506Z,100439.31
2022-09-30T03:02:41.604Z,100436.59
2022-09-30T03:05:11.585Z,100449.47
2022-09-30T03:07:41.348Z,100445.13
2022-09-30T03:10:14.521Z,100457.78
2022-09-30T03:12:57.669Z,100455.16
2022-09-30T03:15:36.711Z,100451.69
2022-09-30T03:18:25.386Z,100444.56
2022-09-30T03:21:09.449Z,100450.13
2022-09-30T03:23:52.627Z,100456.56
2022-09-30T03:26:27.426Z,100460.56
2022-09-30T03:29:09.887Z,100465.06
2022-09-30T03:31:53.294Z,100466.81
2022-09-30T03:34:27.555Z,100474.00
2022-09-30T03:37:04.479Z,100468.53
2022-09-30T03:39:48.523Z,100472.25
2022-09-30T03:42:22.880Z,100472.53
2022-09-30T03:45:02.511Z,100472.25
2022-09-30T03:47:33.112Z,100476.13
2022-09-30T03:50:04.868Z,100478.84
2022-09-30T03:52:35.537Z,100486.16
2022-09-30T03:55:08.014Z,100483.44
2022-09-30T03:57:35.909Z,100489.13
2022-09-30T04:00:05.472Z,100494.47
2022-09-30T04:02:38.129Z,100491.84
2022-09-30T04:05:07.312Z,100494.72
2022-09-30T04:07:37.029Z,100497.31
2022-09-30T04:10:05.599Z,100490.25
2022-09-30T04:12:33.384Z,100487.78
2022-09-30T04:15:01.187Z,100485.06
2022-09-30T04:17:28.937Z,100493.47
2022-09-30T04:19:56.870Z,100494.47
2022-09-30T04:22:26.547Z,100500.19
2022-09-30T04:24:55.869Z,100503.03
2022-09-30T04:27:23.588Z,100501.53
2022-09-30T04:29:51.390Z,100515.28
2022-09-30T04:32:19.240Z,100520.88
2022-09-30T04:34:47.042Z,100521.00
2022-09-30T04:37:15.208Z,100526.56
2022-09-30T04:39:44.237Z,100523.97
2022-09-30T04:42:13.363Z,100527.44
2022-09-30T04:44:41.151Z,100522.13
2022-09-30T04:47:09.212Z,100523.09
2022-09-30T04:49:37.081Z,100524.94
2022-09-30T04:52:04.835Z,100518.78
2022-09-30T04:54:32.606Z,100527.06
2022-09-30T04:57:00.332Z,100526.31
2022-09-30T04:59:29.493Z,100530.91
2022-09-30T05:01:57.287Z,100524.72
2022-09-30T05:04:25.115Z,100533.88
2022-09-30T05:06:52.822Z,100535.88
2022-09-30T05:09:20.782Z,100549.63
2022-09-30T05:11:48.554Z,100546.03
2022-09-30T05:14:16.345Z,100543.28
2022-09-30T05:16:45.502Z,100549.50
2022-09-30T05:19:13.409Z,100537.97
2022-09-30T05:21:44.819Z,100538.84
2022-09-30T05:24:12.761Z,100542.66
2022-09-30T05:26:40.677Z,100546.25
2022-09-30T05:29:08.681Z,100554.53
2022-09-30T05:31:36.918Z,100555.56
2022-09-30T05:34:06.197Z,100553.69
2022-09-30T05:36:33.914Z,100559.38
2022-09-30T05:39:01.773Z,100572.13
2022-09-30T05:41:29.526Z,100583.88
2022-09-30T05:44:01.026Z,100593.03
2022-09-30T05:46:29.237Z,100593.03
2022-09-30T05:48:57.209Z,100593.81
2022-09-30T05:51:26.444Z,100605.44
2022-09-30T05:53:54.523Z,100602.72
2022-09-30T05:56:22.473Z,100605.31
2022-09-30T05:58:50.870Z,100605.19
2022-09-30T06:01:19.010Z,100611.50
2022-09-30T06:03:47.982Z,100612.25
2022-09-30T06:06:16.783Z,100610.50
2022-09-30T06:08:46.933Z,100610.28
2022-09-30T06:11:17.759Z,100613.88
2022-09-30T06:13:47.574Z,100612.84
2022-09-30T06:16:15.808Z,100614.75
2022-09-30T06:18:43.636Z,100610.13
2022-09-30T06:21:13.488Z,100614.47
2022-09-30T06:23:41.590Z,100615.34
2022-09-30T06:26:13.418Z,100614.25
2022-09-30T06:28:42.318Z,100617.84
2022-09-30T06:31:11.349Z,100626.50
2022-09-30T06:33:39.387Z,100631.59
2022-09-30T06:36:07.336Z,100642.59
2022-09-30T06:38:37.643Z,100643.50
2022-09-30T06:41:06.264Z,100644.16
2022-09-30T06:43:49.439Z,100646.13
2022-09-30T06:46:29.807Z,100653.28
2022-09-30T06:49:13.386Z,100658.31
2022-09-30T06:51:42.101Z,100662.28
2022-09-30T06:54:10.239Z,100658.44
2022-09-30T06:56:38.181Z,100665.56
2022-09-30T06:59:07.310Z,100676.13
2022-09-30T07:01:36.344Z,100675.88
2022-09-30T07:04:09.408Z,100680.00
2022-09-30T07:06:38.922Z,100681.31
2022-09-30T07:09:07.457Z,100691.00
2022-09-30T07:11:36.635Z,100690.72
2022-09-30T07:14:05.245Z,100688.63
2022-09-30T07:16:35.280Z,100688.22
2022-09-30T07:19:03.802Z,100688.09
2022-09-30T07:21:31.814Z,100682.72
2022-09-30T07:24:00.177Z,100684.56
2022-09-30T07:26:29.352Z,100690.34
2022-09-30T07:28:57.230Z,100689.47
2022-09-30T07:31:35.671Z,100692.91
2022-09-30T07:34:07.991Z,100688.34
2022-09-30T07:36:37.036Z,100685.19
2022-09-30T07:39:07.599Z,100696.28
2022-09-30T07:41:38.857Z,100699.31
2022-09-30T07:44:11.086Z,100693.38
2022-09-30T07:46:40.385Z,100696.16
2022-09-30T07:49:14.750Z,100702.59
2022-09-30T07:51:45.434Z,100703.50
2022-09-30T07:54:16.121Z,100701.44
2022-09-30T07:57:09.171Z,100686.81
2022-09-30T07:59:34.412Z,100691.69
2022-09-30T08:02:02.406Z,100693.91
2022-09-30T08:04:31.625Z,100697.22
2022-09-30T08:07:01.330Z,100699.84
2022-09-30T08:09:31.193Z,100699.09
2022-09-30T08:11:59.349Z,100701.47
2022-09-30T08:14:28.863Z,100696.31
2022-09-30T08:16:58.399Z,100706.31
2022-09-30T08:19:27.557Z,100706.78
2022-09-30T08:21:57.634Z,100706.44
2022-09-30T08:24:26.532Z,100697.28
2022-09-30T08:26:54.979Z,100700.53
2022-09-30T08:29:53.406Z,100703.78
2022-09-30T08:32:11.052Z,100701.53
2022-09-30T08:34:38.922Z,100696.19
2022-09-30T08:37:10.198Z,100706.19
2022-09-30T08:39:38.332Z,100701.47
2022-09-30T08:42:38.989Z,100705.09
2022-09-30T08:45:20.730Z,100694.75
2022-09-30T08:47:56.159Z,100689.75
2022-09-30T08:50:30.369Z,100701.09
2022-09-30T08:53:02.625Z,100708.66
2022-09-30T08:55:37.091Z,100700.72
2022-09-30T08:58:06.040Z,100709.84
2022-09-30T09:00:35.144Z,100712.41
2022-09-30T09:03:04.226Z,100709.50
2022-09-30T09:05:51.513Z,100709.91
2022-09-30T09:08:30.453Z,100721.44
2022-09-30T09:11:05.265Z,100705.44
2022-09-30T09:13:47.513Z,100712.03
2022-09-30T09:16:23.152Z,100711.00
2022-09-30T09:19:04.713Z,100707.41
2022-09-30T09:21:51.642Z,100706.03
2022-09-30T09:24:23.849Z,100699.34
2022-09-30T09:26:54.029Z,100694.38
2022-09-30T09:29:34.196Z,100703.53
2022-09-30T09:32:03.635Z,100696.78
2022-09-30T09:34:34.823Z,100694.25
2022-09-30T09:37:18.394Z,100688.75
2022-09-30T09:40:13.108Z,100695.81
2022-09-30T09:42:56.227Z,100702.06
2022-09-30T09:45:30.011Z,100694.84
2022-09-30T09:48:00.041Z,100692.63
2022-09-30T09:50:37.401Z,100697.97
2022-09-30T09:53:39.243Z,100688.63
2022-09-30T09:56:18.574Z,100695.56
2022-09-30T09:59:09.350Z,100682.63
2022-09-30T10:01:39.013Z,100699.34
2022-09-30T10:04:19.221Z,100698.31
2022-09-30T10:06:51.476Z,100691.22
2022-09-30T10:09:32.722Z,100696.06
2022-09-30T10:12:35.434Z,100696.06
2022-09-30T10:15:22.673Z,100691.94
2022-09-30T10:17:55.926Z,100687.78
2022-09-30T10:20:30.924Z,100678.63
2022-09-30T10:23:05.840Z,100684.28
2022-09-30T10:25:33.963Z,100689.25
2022-09-30T10:28:17.033Z,100679.59
2022-09-30T10:30:50.439Z,100681.81
2022-09-30T10:33:25.661Z,100686.81
2022-09-30T10:36:19.069Z,100686.28
2022-09-30T10:39:07.269Z,100674.00
2022-09-30T10:41:38.108Z,100676.22
2022-09-30T10:44:16.578Z,100677.22
2022-09-30T10:46:47.399Z,100672.03
2022-09-30T10:49:27.373Z,100674.06
2022-09-30T10:51:55.752Z,100678.56
2022-09-30T10:54:46.322Z,100684.25
2022-09-30T10:57:17.256Z,100683.53
2022-09-30T10:59:47.851Z,100677.28
2022-09-30T11:02:30.670Z,100678.63
2022-09-30T11:05:04.411Z,100681.03
2022-09-30T11:07:38.565Z,100688.31
2022-09-30T11:10:15.196Z,100689.13
2022-09-30T11:12:48.820Z,100696.84
2022-09-30T11:15:23.116Z,100708.75
2022-09-30T11:17:58.593Z,100700.94
2022-09-30T11:20:30.908Z,100701.41
2022-09-30T11:23:05.130Z,100699.16
2022-09-30T11:25:40.861Z,100688.38
2022-09-30T11:28:37.084Z,100698.25
2022-09-30T11:31:17.096Z,100695.75
2022-09-30T11:33:59.960Z,100696.97
2022-09-30T11:36:32.614Z,100695.59
2022-09-30T11:39:19.517Z,100700.22
2022-09-30T11:41:55.931Z,100696.94
2022-09-30T11:44:31.236Z,100689.28
2022-09-30T11:47:30.396Z,100683.25
2022-09-30T11:50:19.101Z,100685.63
2022-09-30T11:52:57.442Z,100679.91
2022-09-30T11:55:44.830Z,100674.22
2022-09-30T11:58:39.794Z,100673.16
2022-09-30T12:01:15.364Z,100671.72
2022-09-30T12:03:49.214Z,100665.81
2022-09-30T12:06:26.436Z,100667.19
2022-09-30T12:08:59.937Z,100656.94
2022-09-30T12:11:36.283Z,100659.16
2022-09-30T12:14:10.842Z,100655.16
2022-09-30T12:16:39.771Z,100651.34
2022-09-30T12:19:18.727Z,100657.19
2022-09-30T12:21:56.321Z,100649.91
2022-09-30T12:24:30.772Z,100655.09
2022-09-30T12:26:59.970Z,100647.66
2022-09-30T12:29:50.279Z,100650.19
2022-09-30T12:32:51.065Z,100643.16
2022-09-30T12:35:38.945Z,100645.91
2022-09-30T12:38:21.447Z,100642.09
2022-09-30T12:41:02.128Z,100638.47
2022-09-30T12:43:59.265Z,100641.25
2022-09-30T12:46:47.523Z,100634.84
2022-09-30T12:49:21.548Z,100630.16
2022-09-30T12:51:55.623Z,100633.97
2022-09-30T12:54:27.652Z,100624.81
2022-09-30T12:56:59.312Z,100623.25
2022-09-30T12:59:30.840Z,100622.41
2022-09-30T13:02:00.986Z,100615.81
2022-09-30T13:04:35.652Z,100616.69
2022-09-30T13:07:19.673Z,100613.91
2022-09-30T13:10:02.971Z,100611.31
2022-09-30T13:12:43.161Z,100607.22
2022-09-30T13:15:39.475Z,100600.34
2022-09-30T13:18:59.061Z,100599.94
2022-09-30T13:21:27.163Z,100600.59
2022-09-30T13:23:58.009Z,100604.41
2022-09-30T13:26:40.078Z,100592.69
2022-09-30T13:29:38.112Z,100593.81
2022-09-30T13:32:11.983Z,100589.31
2022-09-30T13:34:59.488Z,100590.69
2022-09-30T13:37:41.562Z,100586.59
2022-09-30T13:40:37.836Z,100584.38
2022-09-30T13:43:18.788Z,100586.31
2022-09-30T13:45:49.443Z,100589.44
2022-09-30T13:48:22.622Z,100582.00
2022-09-30T13:50:52.709Z,100590.31
2022-09-30T13:53:32.214Z,100592.03
2022-09-30T13:56:08.375Z,100586.50
2022-09-30T13:58:53.326Z,100582.00
2022-09-30T14:01:42.205Z,100576.66
2022-09-30T14:04:35.519Z,100575.97
2022-09-30T14:07:14.093Z,100576.84
2022-09-30T14:10:09.741Z,100572.56
2022-09-30T14:13:03.543Z,100572.75
2022-09-30T14:16:03.806Z,100562.53
2022-09-30T14:19:05.127Z,100559.63
2022-09-30T14:21:41.283Z,100555.81
2022-09-30T14:24:17.226Z,100555.16
2022-09-30T14:27:05.070Z,100557.44
2022-09-30T14:29:44.855Z,100549.50
2022-09-30T14:32:14.838Z,100543.69
2022-09-30T14:34:43.357Z,100543.84
2022-09-30T14:37:19.890Z,100546.63
2022-09-30T14:39:49.509Z,100545.28
2022-09-30T14:42:25.168Z,100547.19
2022-09-30T14:44:56.655Z,100542.88
2022-09-30T14:47:25.824Z,100544.31
2022-09-30T14:49:53.783Z,100529.81
2022-09-30T14:52:37.334Z,100530.84
2022-09-30T14:55:05.997Z,100532.06
2022-09-30T14:57:35.884Z,100537.78
2022-09-30T15:00:30.121Z,100534.53
2022-09-30T15:02:59.135Z,100540.06
2022-09-30T15:05:27.653Z,100539.22
2022-09-30T15:07:55.698Z,100532.81
2022-09-30T15:10:25.934Z,100532.81
2022-09-30T15:12:56.246Z,100524.69
2022-09-30T15:15:29.019Z,100525.56
2022-09-30T15:17:56.938Z,100522.50
2022-09-30T15:20:30.818Z,100515.72
2022-09-30T15:23:03.527Z,100513.34
2022-09-30T15:25:32.036Z,100515.94
2022-09-30T15:28:00.029Z,100516.00
2022-09-30T15:30:30.109Z,100518.19
2022-09-30T15:33:00.466Z,100512.66
2022-09-30T15:35:29.313Z,100512.16
2022-09-30T15:38:08.457Z,100515.63
2022-09-30T15:40:49.979Z,100511.50
2022-09-30T15:43:32.961Z,100522.56
2022-09-30T15:46:27.892Z,100523.59
2022-09-30T15:48:58.284Z,100514.59
2022-09-30T15:51:32.262Z,100512.53
2022-09-30T15:54:01.547Z,100516.50
2022-09-30T15:56:36.125Z,100521.00
2022-09-30T15:59:07.728Z,100521.16
2022-09-30T16:01:38.964Z,100513.91
2022-09-30T16:04:15.384Z,100522.22
2022-09-30T16:06:49.253Z,100522.38
2022-09-30T16:09:24.746Z,100522.59
2022-09-30T16:12:05.206Z,100526.41
2022-09-30T16:14:37.328Z,100522.97
2022-09-30T16:17:07.875Z,100530.75
2022-09-30T16:19:35.825Z,100535.44
2022-09-30T16:22:03.637Z,100535.63
2022-09-30T16:24:48.537Z,100533.88
2022-09-30T16:27:31.217Z,100538.91
2022-09-30T16:30:00.241Z,100543.44
2022-09-30T16:32:33.878Z,100542.41
2022-09-30T16:35:01.852Z,100539.34
2022-09-30T16:37:29.672Z,100542.47
2022-09-30T16:40:07.341Z,100545.22
2022-09-30T16:42:35.158Z,100542.16
2022-09-30T16:45:02.998Z,100545.25
2022-09-30T16:47:32.409Z,100542.69
2022-09-30T16:50:00.175Z,100541.34
2022-09-30T16:52:27.956Z,100535.13
2022-09-30T16:54:55.902Z,100539.09
2022-09-30T16:57:23.700Z,100535.00
2022-09-30T16:59:51.470Z,100526.88
2022-09-30T17:02:20.165Z,100525.31
2022-09-30T17:04:49.443Z,100531.72
2022-09-30T17:07:17.260Z,100523.13
2022-09-30T17:09:45.218Z,100517.94
2022-09-30T17:12:13.521Z,100518.13
2022-09-30T17:14:43.326Z,100518.50
2022-09-30T17:17:13.652Z,100526.25
2022-09-30T17:19:42.137Z,100514.72
2022-09-30T17:22:11.368Z,100523.16
2022-09-30T17:24:39.311Z,100520.91
2022-09-30T17:27:07.798Z,100519.56
2022-09-30T17:29:41.807Z,100526.28
2022-09-30T17:32:10.140Z,100528.53
2022-09-30T17:34:37.906Z,100519.78
2022-09-30T17:39:35.517Z,100527.75
2022-09-30T17:42:20.725Z,100515.47
2022-09-30T17:44:48.557Z,100515.34
2022-09-30T17:47:16.325Z,100524.81
2022-09-30T17:49:44.380Z,100525.38
2022-09-30T17:52:14.512Z,100525.88
2022-09-30T17:54:43.746Z,100519.69
2022-09-30T17:57:11.706Z,100527.63
2022-09-30T17:59:40.326Z,100518.84
2022-09-30T18:02:08.283Z,100523.84
2022-09-30T18:04:37.667Z,100516.97
2022-09-30T18:07:06.197Z,100512.81
2022-09-30T18:09:37.165Z,100515.09
2022-09-30T18:12:07.297Z,100518.19
2022-09-30T18:14:36.474Z,100523.16
2022-09-30T18:17:05.610Z,100510.56
2022-09-30T18:19:34.635Z,100511.78
2022-09-30T18:22:02.488Z,100515.06
2022-09-30T18:24:47.927Z,100519.88
2022-09-30T18:27:17.262Z,100521.94
2022-09-30T18:29:45.041Z,100519.53
2022-09-30T18:32:13.344Z,100525.41
2022-09-30T18:34:41.175Z,100521.09
2022-09-30T18:37:09.053Z,100525.72
2022-09-30T18:39:38.122Z,100527.78
2022-09-30T18:42:06.672Z,100526.25
2022-09-30T18:44:37.655Z,100531.56
2022-09-30T18:47:05.769Z,100536.75
2022-09-30T18:49:33.742Z,100540.53
2022-09-30T18:52:03.182Z,100547.06
2022-09-30T18:54:31.061Z,100538.16
2022-09-30T18:56:59.666Z,100546.56
2022-09-30T18:59:27.611Z,100536.59
2022-09-30T19:01:58.501Z,100552.09
2022-09-30T19:04:26.596Z,100539.66
2022-09-30T19:06:54.370Z,100535.38
2022-09-30T19:09:24.418Z,100534.69
2022-09-30T19:11:52.837Z,100535.72
2022-09-30T19:14:20.843Z,100537.75
2022-09-30T19:16:49.308Z,100531.56
2022-09-30T19:19:20.461Z,100540.69
2022-09-30T19:21:49.453Z,100543.81
2022-09-30T19:24:18.059Z,100533.09
2022-09-30T19:26:47.934Z,100516.91
2022-09-30T19:29:16.237Z,100516.25
2022-09-30T19:31:45.345Z,100519.16
2022-09-30T19:34:25.192Z,100500.22
2022-09-30T19:36:59.810Z,100504.19
2022-09-30T19:39:41.214Z,100508.13
2022-09-30T19:45:10.518Z,100503.31
2022-09-30T19:47:38.377Z,100512.59
2022-09-30T19:50:07.449Z,100509.13
2022-09-30T19:52:42.787Z,100503.78
2022-09-30T19:55:16.820Z,100506.91
2022-09-30T19:57:45.231Z,100503.75
2022-09-30T20:00:13.706Z,100511.00
2022-09-30T20:02:42.015Z,100501.34
2022-09-30T20:05:10.687Z,100507.00
2022-09-30T20:07:40.049Z,100507.19
2022-09-30T20:10:08.737Z,100515.91
2022-09-30T20:12:36.525Z,100522.66
2022-09-30T20:15:21.898Z,100521.94
2022-09-30T20:17:49.688Z,100519.69
2022-09-30T20:20:36.437Z,100525.38
2022-09-30T20:23:07.744Z,100526.56
2022-09-30T20:25:36.267Z,100528.78
2022-09-30T20:28:05.400Z,100522.59
2022-09-30T20:30:34.403Z,100517.56
2022-09-30T20:33:02.485Z,100507.78
2022-09-30T20:35:30.320Z,100502.59
2022-09-30T20:37:58.093Z,100503.78
2022-09-30T20:40:27.565Z,100501.19
2022-09-30T20:43:01.426Z,100489.66
2022-09-30T20:45:29.635Z,100480.00
2022-09-30T20:47:57.536Z,100474.69
2022-09-30T20:50:35.861Z,100465.88
2022-09-30T20:53:09.407Z,100460.38
2022-09-30T20:55:43.322Z,100464.50
2022-09-30T20:58:12.742Z,100464.81
2022-09-30T21:00:43.667Z,100454.16
2022-09-30T21:03:13.575Z,100466.34
2022-09-30T21:05:41.778Z,100463.94
2022-09-30T21:08:09.576Z,100456.00
2022-09-30T21:10:39.191Z,100456.00
2022-09-30T21:13:11.514Z,100449.63
2022-09-30T21:15:40.023Z,100436.53
2022-09-30T21:18:08.195Z,100431.03
2022-09-30T21:20:36.355Z,100442.19
2022-09-30T21:23:04.481Z,100432.22
2022-09-30T21:25:32.767Z,100426.91
2022-09-30T21:28:03.388Z,100421.56
2022-09-30T21:30:31.349Z,100413.63
2022-09-30T21:32:59.120Z,100419.13
2022-09-30T21:35:27.019Z,100420.13
2022-09-30T21:37:54.748Z,100411.22
2022-09-30T21:40:22.514Z,100415.84
2022-09-30T21:42:50.338Z,100413.09
2022-09-30T21:45:20.200Z,100409.28
2022-09-30T21:47:48.019Z,100403.13
2022-09-30T21:50:16.053Z,100398.66
2022-09-30T21:52:43.947Z,100395.03
2022-09-30T21:55:12.458Z,100395.91
2022-09-30T21:57:40.333Z,100395.91
2022-09-30T22:00:09.055Z,100395.03
2022-09-30T22:02:43.918Z,100388.50
2022-09-30T22:05:12.221Z,100386.94
2022-09-30T22:07:40.096Z,100391.59
2022-09-30T22:10:08.959Z,100397.78
2022-09-30T22:12:36.748Z,100397.94
2022-09-30T22:15:05.085Z,100393.47
2022-09-30T22:17:32.893Z,100395.34
2022-09-30T22:20:02.949Z,100395.19
2022-09-30T22:22:30.706Z,100382.81
2022-09-30T22:24:58.519Z,100394.66
2022-09-30T22:27:26.284Z,100383.66
2022-09-30T22:29:54.061Z,100391.91
2022-09-30T22:32:21.845Z,100386.59
2022-09-30T22:35:07.199Z,100391.22
2022-09-30T22:37:53.648Z,100379.53
2022-09-30T22:40:21.421Z,100372.47
2022-09-30T22:42:49.196Z,100368.84
2022-09-30T22:45:17.136Z,100367.13
2022-09-30T22:47:44.934Z,100371.78
2022-09-30T22:50:12.747Z,100365.44
2022-09-30T22:52:41.848Z,100368.00
2022-09-30T22:55:10.433Z,100369.19
2022-09-30T22:57:38.185Z,100356.47
2022-09-30T23:00:07.059Z,100350.13
2022-09-30T23:02:35.031Z,100342.03
2022-09-30T23:05:02.983Z,100353.03
2022-09-30T23:07:31.043Z,100337.56
2022-09-30T23:10:01.063Z,100339.28
2022-09-30T23:12:29.105Z,100329.47
2022-09-30T23:14:57.455Z,100324.84
2022-09-30T23:17:25.356Z,100322.28
2022-09-30T23:19:53.154Z,100315.91
2022-09-30T23:22:20.998Z,100314.19
2022-09-30T23:24:48.881Z,100312.31
2022-09-30T23:27:18.135Z,100308.69
2022-09-30T23:29:45.890Z,100296.84
2022-09-30T23:32:13.718Z,100295.28
2022-09-30T23:34:41.529Z,100289.78
2022-09-30T23:37:09.345Z,100290.81
2022-09-30T23:39:37.111Z,100292.69
2022-09-30T23:42:04.889Z,100288.22
2022-09-30T23:44:34.086Z,100284.44
2022-09-30T23:47:19.792Z,100278.28
2022-09-30T23:49:47.693Z,100270.19
2022-09-30T23:52:15.954Z,100265.56
2022-09-30T23:54:44.365Z,100256.47
2022-09-30T23:57:12.738Z,100251.81
2022-09-30T23:59:42.048Z,100256.28
